createdAt,value
2022-10-23T00:01:16.815Z,70.64
2022-10-23T00:03:44.721Z,71.18
2022-10-23T00:06:13.007Z,71.68
2022-10-23T00:08:40.973Z,71.88
2022-10-23T00:11:10.166Z,71.74
2022-10-23T00:13:37.900Z,72.10
2022-10-23T00:16:05.465Z,72.14
2022-10-23T00:18:32.910Z,71.91
2022-10-23T00:20:59.943Z,71.60
2022-10-23T00:23:26.931Z,71.32
2022-10-23T00:25:53.945Z,70.95
2022-10-23T00:28:21.086Z,70.64
2022-10-23T00:30:48.094Z,70.14
2022-10-23T00:33:15.928Z,70.02
2022-10-23T00:35:43.846Z,69.83
2022-10-23T00:38:11.583Z,69.63
2022-10-23T00:40:39.750Z,67.14
2022-10-23T00:43:07.483Z,65.48
2022-10-23T00:45:35.050Z,64.97
2022-10-23T00:48:03.395Z,66.79
2022-10-23T00:50:33.487Z,66.72
2022-10-23T00:53:03.568Z,67.52
2022-10-23T00:55:32.549Z,68.30
2022-10-23T00:57:59.870Z,69.19
2022-10-23T01:00:30.745Z,69.31
2022-10-23T01:03:00.003Z,67.30
2022-10-23T01:05:39.175Z,65.75
2022-10-23T01:08:17.647Z,65.63
2022-10-23T01:10:53.005Z,63.61
2022-10-23T01:14:18.296Z,62.34
2022-10-23T01:17:10.119Z,61.04
2022-10-23T01:20:19.016Z,61.38
2022-10-23T01:23:21.456Z,64.21
2022-10-23T01:26:33.650Z,65.67
2022-10-23T01:29:29.264Z,64.59
2022-10-23T01:32:09.934Z,65.21
2022-10-23T01:35:11.957Z,65.09
2022-10-23T01:38:05.036Z,64.88
2022-10-23T01:40:48.323Z,65.31
2022-10-23T01:43:21.229Z,64.28
2022-10-23T01:45:54.360Z,64.87
2022-10-23T01:48:28.072Z,65.01
2022-10-23T01:50:59.077Z,65.34
2022-10-23T01:53:30.912Z,67.20
2022-10-23T01:56:01.471Z,69.46
2022-10-23T01:58:31.753Z,71.01
2022-10-23T02:01:03.763Z,72.08
2022-10-23T02:03:34.133Z,72.93
2022-10-23T02:06:01.716Z,73.48
2022-10-23T02:08:29.014Z,73.63
2022-10-23T02:11:08.474Z,73.71
2022-10-23T02:14:18.763Z,73.62
2022-10-23T02:16:51.868Z,73.29
2022-10-23T02:19:54.536Z,73.21
2022-10-23T02:22:31.324Z,72.86
2022-10-23T02:25:11.638Z,72.39
2022-10-23T02:27:54.113Z,72.41
2022-10-23T02:30:24.811Z,72.54
2022-10-23T02:33:06.431Z,73.15
2022-10-23T02:35:33.467Z,73.45
2022-10-23T02:38:33.615Z,74.59
2022-10-23T02:41:15.712Z,75.53
2022-10-23T02:44:42.362Z,76.67
2022-10-23T02:47:58.048Z,77.09
2022-10-23T02:50:57.759Z,77.99
2022-10-23T02:53:48.247Z,78.13
2022-10-23T02:56:58.515Z,78.21
2022-10-23T02:59:52.145Z,78.25
2022-10-23T03:02:26.223Z,78.13
2022-10-23T03:04:56.310Z,77.47
2022-10-23T03:07:26.418Z,77.26
2022-10-23T03:10:05.323Z,77.00
2022-10-23T03:12:33.247Z,76.59
2022-10-23T03:15:00.473Z,75.89
2022-10-23T03:17:27.633Z,75.49
2022-10-23T03:19:58.476Z,75.01
2022-10-23T03:22:25.732Z,74.38
2022-10-23T03:24:52.781Z,73.54
2022-10-23T03:27:19.816Z,73.23
2022-10-23T03:29:46.940Z,72.68
2022-10-23T03:32:15.521Z,72.50
2022-10-23T03:34:42.983Z,71.59
2022-10-23T03:37:10.185Z,71.54
2022-10-23T03:39:37.255Z,71.45
2022-10-23T03:42:04.569Z,71.54
2022-10-23T03:44:32.054Z,71.16
2022-10-23T03:46:59.241Z,69.39
2022-10-23T03:49:26.881Z,68.20
2022-10-23T03:51:54.147Z,66.20
2022-10-23T03:54:26.414Z,65.15
2022-10-23T03:56:56.634Z,64.90
2022-10-23T03:59:24.634Z,63.96
2022-10-23T04:01:51.908Z,64.03
2022-10-23T04:04:19.318Z,63.55
2022-10-23T04:06:46.414Z,61.36
2022-10-23T04:11:45.766Z,62.77
2022-10-23T04:14:14.039Z,62.03
2022-10-23T04:16:41.081Z,60.74
2022-10-23T04:19:08.043Z,61.32
2022-10-23T04:21:35.092Z,61.11
2022-10-23T04:24:02.126Z,61.33
2022-10-23T04:26:29.425Z,61.85
2022-10-23T04:28:56.505Z,62.25
2022-10-23T04:31:23.545Z,61.99
2022-10-23T04:33:50.611Z,61.66
2022-10-23T04:36:31.042Z,61.60
2022-10-23T04:39:04.139Z,62.51
2022-10-23T04:41:31.268Z,62.70
2022-10-23T04:43:58.378Z,61.45
2022-10-23T04:46:25.532Z,60.38
2022-10-23T04:48:52.573Z,59.63
2022-10-23T04:51:38.472Z,59.16
2022-10-23T04:54:25.792Z,59.17
2022-10-23T04:57:11.339Z,58.35
2022-10-23T04:59:54.949Z,58.26
2022-10-23T05:02:22.232Z,57.87
2022-10-23T05:04:50.201Z,58.42
2022-10-23T05:07:36.788Z,57.74
2022-10-23T05:10:14.337Z,56.94
2022-10-23T05:13:07.963Z,57.30
2022-10-23T05:15:35.115Z,57.78
2022-10-23T05:18:10.908Z,57.83
2022-10-23T05:20:40.023Z,57.10
2022-10-23T05:23:13.189Z,57.27
2022-10-23T05:25:42.941Z,56.10
2022-10-23T05:28:16.437Z,56.30
2022-10-23T05:30:43.779Z,56.79
2022-10-23T05:33:11.832Z,58.22
2022-10-23T05:35:44.657Z,59.87
2022-10-23T05:38:15.072Z,59.84
2022-10-23T05:40:43.182Z,58.76
2022-10-23T05:43:15.629Z,59.97
2022-10-23T05:46:05.389Z,61.17
2022-10-23T05:49:04.270Z,61.53
2022-10-23T05:51:40.443Z,61.55
2022-10-23T05:54:27.779Z,62.72
2022-10-23T05:57:15.161Z,64.67
2022-10-23T05:59:48.855Z,62.67
2022-10-23T06:02:47.818Z,62.85
2022-10-23T06:05:30.015Z,63.91
2022-10-23T06:08:21.187Z,64.77
2022-10-23T06:10:50.734Z,65.51
2022-10-23T06:13:18.700Z,65.28
2022-10-23T06:15:45.792Z,65.72
2022-10-23T06:18:21.909Z,66.49
2022-10-23T06:20:55.357Z,65.54
2022-10-23T06:23:25.786Z,67.57
2022-10-23T06:26:24.952Z,69.17
2022-10-23T06:29:14.773Z,70.31
2022-10-23T06:31:43.253Z,70.94
2022-10-23T06:34:12.395Z,71.06
2022-10-23T06:36:39.863Z,70.89
2022-10-23T06:39:32.096Z,70.19
2022-10-23T06:42:17.629Z,70.64
2022-10-23T06:45:17.459Z,71.42
2022-10-23T06:48:04.765Z,72.05
2022-10-23T06:50:50.554Z,70.33
2022-10-23T06:53:25.836Z,71.80
2022-10-23T06:56:05.740Z,69.88
2022-10-23T06:58:36.902Z,70.47
2022-10-23T07:01:14.009Z,71.77
2022-10-23T07:03:42.983Z,71.61
2022-10-23T07:06:11.237Z,69.74
2022-10-23T07:08:39.190Z,68.49
2022-10-23T07:11:23.963Z,69.99
2022-10-23T07:13:51.219Z,69.89
2022-10-23T07:16:23.351Z,68.65
2022-10-23T07:18:59.776Z,68.42
2022-10-23T07:21:46.893Z,69.59
2022-10-23T07:24:25.332Z,68.21
2022-10-23T07:26:57.116Z,67.20
2022-10-23T07:29:27.162Z,65.97
2022-10-23T07:31:54.339Z,63.52
2022-10-23T07:34:50.610Z,61.32
2022-10-23T07:37:25.792Z,60.46
2022-10-23T07:39:53.040Z,60.74
2022-10-23T07:42:20.369Z,60.86
2022-10-23T07:44:48.784Z,60.74
2022-10-23T07:47:15.794Z,61.51
2022-10-23T07:49:47.471Z,61.31
2022-10-23T07:52:14.672Z,61.23
2022-10-23T07:55:04.884Z,60.88
2022-10-23T07:57:34.505Z,62.13
2022-10-23T08:00:19.925Z,62.04
2022-10-23T08:02:56.365Z,63.24
2022-10-23T08:05:23.572Z,62.61
2022-10-23T08:07:57.037Z,61.70
2022-10-23T08:10:24.476Z,61.47
2022-10-23T08:12:51.613Z,62.37
2022-10-23T08:15:22.265Z,62.42
2022-10-23T08:17:57.979Z,62.75
2022-10-23T08:20:43.513Z,63.55
2022-10-23T08:23:16.589Z,64.03
2022-10-23T08:25:44.978Z,63.33
2022-10-23T08:28:13.484Z,63.18
2022-10-23T08:30:51.205Z,62.24
2022-10-23T08:33:18.764Z,61.74
2022-10-23T08:35:46.860Z,63.05
2022-10-23T08:38:16.941Z,63.19
2022-10-23T08:40:48.202Z,63.05
2022-10-23T08:43:50.572Z,61.64
2022-10-23T08:46:42.797Z,61.43
2022-10-23T08:49:45.774Z,61.61
2022-10-23T08:52:32.467Z,62.49
2022-10-23T08:55:35.604Z,63.47
2022-10-23T08:58:25.047Z,59.40
2022-10-23T09:00:52.755Z,60.22
2022-10-23T09:03:20.108Z,59.40
2022-10-23T09:06:12.450Z,59.19
2022-10-23T09:09:22.593Z,59.77
2022-10-23T09:12:07.777Z,58.73
2022-10-23T09:15:31.790Z,59.52
2022-10-23T09:18:12.531Z,57.97
2022-10-23T09:20:40.965Z,55.93
2022-10-23T09:23:17.505Z,56.81
2022-10-23T09:25:47.250Z,55.57
2022-10-23T09:28:22.996Z,54.79
2022-10-23T09:30:52.227Z,55.29
2022-10-23T09:33:24.354Z,53.85
2022-10-23T09:36:22.084Z,54.60
2022-10-23T09:38:50.864Z,52.54
2022-10-23T09:41:21.886Z,52.11
2022-10-23T09:43:59.987Z,52.71
2022-10-23T09:46:57.485Z,52.10
2022-10-23T09:49:27.159Z,52.31
2022-10-23T09:52:22.304Z,49.83
2022-10-23T09:54:53.666Z,49.45
2022-10-23T09:57:29.271Z,50.02
2022-10-23T10:00:00.800Z,48.72
2022-10-23T10:02:30.938Z,46.73
2022-10-23T10:05:38.590Z,47.03
2022-10-23T10:08:54.826Z,45.38
2022-10-23T10:11:54.267Z,44.96
2022-10-23T10:14:52.189Z,43.34
2022-10-23T10:17:40.314Z,42.98
2022-10-23T10:20:59.634Z,41.06
2022-10-23T10:24:12.086Z,41.33
2022-10-23T10:27:13.238Z,41.02
2022-10-23T10:30:10.682Z,41.13
2022-10-23T10:33:02.783Z,40.50
2022-10-23T10:35:53.125Z,40.79
2022-10-23T10:38:50.471Z,41.01
2022-10-23T10:41:55.658Z,40.44
2022-10-23T10:44:50.724Z,39.96
2022-10-23T10:47:25.813Z,40.18
2022-10-23T10:50:30.055Z,40.20
2022-10-23T10:53:42.831Z,39.97
2022-10-23T10:56:14.801Z,40.28
2022-10-23T10:58:54.253Z,39.65
2022-10-23T11:01:37.047Z,38.27
2022-10-23T11:04:33.005Z,38.57
2022-10-23T11:07:07.004Z,37.69
2022-10-23T11:09:34.109Z,38.93
2022-10-23T11:12:01.184Z,39.53
2022-10-23T11:14:33.502Z,39.51
2022-10-23T11:17:09.971Z,38.71
2022-10-23T11:20:29.172Z,37.31
2022-10-23T11:23:33.049Z,37.99
2022-10-23T11:26:25.704Z,37.38
2022-10-23T11:29:20.952Z,37.32
2022-10-23T11:32:35.739Z,36.69
2022-10-23T11:35:35.276Z,37.45
2022-10-23T11:38:30.800Z,36.79
2022-10-23T11:41:01.956Z,36.86
2022-10-23T11:43:50.594Z,35.28
2022-10-23T11:46:43.852Z,35.74
2022-10-23T11:49:21.546Z,36.37
2022-10-23T11:52:00.852Z,36.46
2022-10-23T11:54:28.074Z,36.22
2022-10-23T11:57:13.203Z,36.08
2022-10-23T12:00:01.026Z,35.71
2022-10-23T12:02:41.469Z,36.28
2022-10-23T12:05:27.542Z,35.85
2022-10-23T12:07:58.398Z,34.50
2022-10-23T12:10:35.050Z,33.96
2022-10-23T12:13:04.836Z,33.60
2022-10-23T12:15:35.932Z,33.78
2022-10-23T12:18:14.911Z,33.44
2022-10-23T12:21:02.595Z,33.48
2022-10-23T12:24:03.744Z,34.82
2022-10-23T12:26:50.947Z,34.03
2022-10-23T12:30:01.676Z,34.34
2022-10-23T12:32:37.546Z,34.27
2022-10-23T12:35:28.321Z,34.04
2022-10-23T12:38:10.604Z,34.09
2022-10-23T12:40:37.745Z,33.53
2022-10-23T12:43:30.293Z,33.28
2022-10-23T12:46:20.687Z,33.63
2022-10-23T12:48:49.798Z,34.63
2022-10-23T12:51:23.887Z,34.04
2022-10-23T12:53:51.408Z,32.96
2022-10-23T12:56:19.230Z,32.67
2022-10-23T12:58:51.570Z,31.42
2022-10-23T13:01:28.991Z,31.75
2022-10-23T13:04:13.527Z,33.15
2022-10-23T13:06:40.763Z,34.14
2022-10-23T13:09:22.434Z,32.99
2022-10-23T13:12:20.930Z,33.03
2022-10-23T13:15:03.730Z,33.13
2022-10-23T13:18:03.739Z,33.81
2022-10-23T13:20:35.389Z,32.78
2022-10-23T13:23:33.116Z,32.80
2022-10-23T13:26:07.132Z,32.61
2022-10-23T13:28:42.545Z,32.33
2022-10-23T13:31:36.029Z,31.72
2022-10-23T13:34:15.557Z,31.89
2022-10-23T13:36:53.682Z,31.58
2022-10-23T13:39:30.467Z,31.65
2022-10-23T13:42:01.712Z,31.38
2022-10-23T13:44:29.127Z,31.33
2022-10-23T13:46:56.776Z,31.59
2022-10-23T13:49:23.884Z,32.14
2022-10-23T13:51:56.567Z,30.77
2022-10-23T13:57:00.242Z,32.19
2022-10-23T13:59:27.377Z,33.22
2022-10-23T14:01:54.647Z,34.08
2022-10-23T14:04:21.944Z,34.90
2022-10-23T14:06:48.895Z,35.31
2022-10-23T14:09:18.490Z,35.98
2022-10-23T14:11:45.834Z,35.47
2022-10-23T14:14:13.020Z,35.50
2022-10-23T14:16:40.036Z,35.29
2022-10-23T14:19:08.617Z,34.85
2022-10-23T14:21:35.674Z,34.64
2022-10-23T14:24:02.757Z,35.41
2022-10-23T14:26:30.504Z,36.05
2022-10-23T14:29:02.325Z,36.84
2022-10-23T14:31:33.838Z,36.76
2022-10-23T14:34:02.055Z,37.62
2022-10-23T14:36:38.541Z,37.30
2022-10-23T14:39:16.736Z,38.21
2022-10-23T14:41:44.137Z,38.04
2022-10-23T14:44:11.398Z,38.29
2022-10-23T14:46:38.653Z,37.81
2022-10-23T14:49:06.118Z,37.18
2022-10-23T14:51:33.378Z,35.97
2022-10-23T14:54:02.547Z,35.18
2022-10-23T14:56:31.636Z,35.38
2022-10-23T14:59:03.046Z,35.86
2022-10-23T15:01:36.372Z,37.04
2022-10-23T15:04:04.544Z,37.79
2022-10-23T15:06:32.794Z,38.48
2022-10-23T15:08:59.922Z,39.72
2022-10-23T15:11:27.403Z,40.79
2022-10-23T15:13:55.238Z,41.52
2022-10-23T15:16:23.341Z,41.39
2022-10-23T15:18:51.274Z,42.01
2022-10-23T15:21:19.071Z,42.44
2022-10-23T15:23:46.976Z,43.14
2022-10-23T15:26:23.945Z,43.68
2022-10-23T15:28:56.634Z,44.00
2022-10-23T15:31:43.320Z,44.59
2022-10-23T15:34:22.488Z,45.19
2022-10-23T15:36:50.237Z,46.12
2022-10-23T15:39:23.874Z,46.68
2022-10-23T15:41:52.983Z,47.35
2022-10-23T15:44:24.895Z,47.65
2022-10-23T15:46:52.269Z,48.28
2022-10-23T15:49:19.767Z,48.76
2022-10-23T15:51:47.104Z,49.45
2022-10-23T15:54:19.200Z,49.83
2022-10-23T15:56:48.612Z,50.11
2022-10-23T15:59:15.896Z,50.51
2022-10-23T16:01:43.163Z,50.41
2022-10-23T16:04:10.408Z,50.84
2022-10-23T16:06:37.967Z,50.82
2022-10-23T16:09:05.021Z,51.09
2022-10-23T16:11:35.753Z,51.57
2022-10-23T16:14:04.301Z,51.99
2022-10-23T16:16:32.560Z,52.04
2022-10-23T16:19:01.073Z,52.14
2022-10-23T16:21:31.112Z,52.47
2022-10-23T16:24:00.109Z,52.44
2022-10-23T16:26:27.969Z,52.82
2022-10-23T16:28:56.977Z,52.66
2022-10-23T16:31:24.715Z,52.83
2022-10-23T16:33:53.027Z,52.53
2022-10-23T16:36:20.698Z,52.26
2022-10-23T16:39:18.314Z,52.34
2022-10-23T16:42:04.153Z,52.10
2022-10-23T16:44:43.870Z,52.06
2022-10-23T16:47:10.938Z,51.73
2022-10-23T16:49:37.986Z,51.79
2022-10-23T16:52:05.019Z,51.99
2022-10-23T16:54:31.983Z,52.56
2022-10-23T16:56:59.077Z,52.77
2022-10-23T16:59:25.961Z,52.96
2022-10-23T17:01:53.590Z,53.13
2022-10-23T17:04:20.725Z,53.96
2022-10-23T17:06:47.652Z,54.48
2022-10-23T17:09:15.012Z,55.40
2022-10-23T17:11:44.664Z,55.95
2022-10-23T17:14:15.664Z,56.36
2022-10-23T17:16:46.581Z,56.66
2022-10-23T17:19:32.749Z,56.18
2022-10-23T17:22:01.851Z,56.09
2022-10-23T17:24:28.873Z,56.19
2022-10-23T17:26:56.309Z,56.27
2022-10-23T17:29:23.261Z,56.50
2022-10-23T17:31:51.324Z,56.68
2022-10-23T17:34:22.331Z,56.84
2022-10-23T17:36:50.810Z,56.96
2022-10-23T17:39:21.206Z,57.03
2022-10-23T17:41:48.739Z,57.11
2022-10-23T17:44:16.118Z,57.10
2022-10-23T17:46:43.321Z,57.02
2022-10-23T17:49:10.903Z,57.11
2022-10-23T17:51:38.296Z,57.40
2022-10-23T17:54:09.214Z,57.49
2022-10-23T17:56:38.466Z,57.62
2022-10-23T17:59:12.811Z,57.56
2022-10-23T18:01:39.993Z,57.60
2022-10-23T18:04:08.205Z,57.56
2022-10-23T18:06:40.912Z,58.38
2022-10-23T18:09:08.098Z,58.96
2022-10-23T18:11:38.104Z,59.31
2022-10-23T18:14:06.442Z,59.21
2022-10-23T18:16:34.933Z,59.62
2022-10-23T18:19:02.001Z,59.67
2022-10-23T18:21:29.003Z,60.02
2022-10-23T18:23:58.277Z,60.12
2022-10-23T18:26:28.093Z,60.42
2022-10-23T18:28:57.470Z,60.46
2022-10-23T18:31:25.968Z,60.67
2022-10-23T18:34:01.677Z,60.66
2022-10-23T18:36:32.619Z,60.86
2022-10-23T18:38:59.695Z,61.02
2022-10-23T18:41:27.399Z,61.16
2022-10-23T18:43:54.984Z,60.80
2022-10-23T18:46:22.547Z,60.20
2022-10-23T18:48:50.982Z,59.87
2022-10-23T18:51:21.229Z,59.40
2022-10-23T18:53:49.004Z,59.69
2022-10-23T18:56:22.086Z,59.09
2022-10-23T18:58:51.054Z,59.02
2022-10-23T19:01:19.637Z,59.11
2022-10-23T19:03:46.980Z,59.60
2022-10-23T19:06:14.751Z,60.49
2022-10-23T19:08:43.299Z,61.21
2022-10-23T19:11:11.723Z,61.24
2022-10-23T19:13:39.701Z,61.52
2022-10-23T19:16:18.166Z,61.93
2022-10-23T19:18:53.043Z,62.34
2022-10-23T19:21:22.196Z,62.22
2022-10-23T19:23:49.934Z,62.01
2022-10-23T19:26:17.540Z,61.95
2022-10-23T19:28:47.484Z,62.06
2022-10-23T19:31:14.663Z,62.17
2022-10-23T19:33:41.781Z,62.33
2022-10-23T19:36:13.828Z,62.09
2022-10-23T19:38:42.136Z,61.86
2022-10-23T19:41:09.589Z,62.24
2022-10-23T19:43:37.910Z,62.02
2022-10-23T19:46:09.350Z,61.87
2022-10-23T19:48:42.613Z,62.32
2022-10-23T19:51:09.909Z,62.36
2022-10-23T19:53:37.077Z,62.85
2022-10-23T19:56:08.916Z,63.42
2022-10-23T19:58:35.972Z,63.09
2022-10-23T20:01:16.516Z,63.51
2022-10-23T20:03:45.667Z,63.96
2022-10-23T20:06:14.397Z,64.33
2022-10-23T20:08:41.977Z,64.79
2022-10-23T20:11:10.313Z,65.16
2022-10-23T20:13:37.275Z,65.38
2022-10-23T20:16:04.404Z,66.00
2022-10-23T20:18:31.624Z,66.69
2022-10-23T20:21:02.241Z,67.03
2022-10-23T20:23:29.313Z,67.02
2022-10-23T20:26:04.283Z,67.40
2022-10-23T20:28:31.200Z,67.15
2022-10-23T20:30:58.174Z,66.76
2022-10-23T20:33:25.502Z,67.26
2022-10-23T20:35:52.961Z,67.77
2022-10-23T20:38:20.231Z,67.21
2022-10-23T20:40:47.252Z,66.81
2022-10-23T20:43:14.294Z,66.77
2022-10-23T20:45:41.239Z,66.48
2022-10-23T20:48:08.203Z,67.44
2022-10-23T20:50:35.496Z,68.34
2022-10-23T20:53:02.569Z,68.87
2022-10-23T20:55:29.648Z,69.14
2022-10-23T20:57:56.581Z,69.09
2022-10-23T21:00:23.675Z,69.17
2022-10-23T21:02:52.652Z,68.65
2022-10-23T21:05:19.795Z,68.89
2022-10-23T21:07:46.872Z,69.68
2022-10-23T21:10:13.836Z,69.99
2022-10-23T21:12:40.934Z,70.58
2022-10-23T21:15:09.242Z,70.71
2022-10-23T21:17:38.992Z,70.60
2022-10-23T21:20:06.566Z,70.83
2022-10-23T21:22:33.487Z,71.02
2022-10-23T21:25:01.647Z,71.36
2022-10-23T21:27:28.704Z,72.25
2022-10-23T21:29:55.664Z,72.41
2022-10-23T21:32:22.779Z,72.53
2022-10-23T21:34:49.688Z,72.05
2022-10-23T21:37:16.696Z,72.10
2022-10-23T21:39:44.489Z,72.60
2022-10-23T21:42:13.289Z,72.54
2022-10-23T21:44:40.829Z,72.27
2022-10-23T21:47:07.872Z,72.35
2022-10-23T21:49:34.816Z,71.70
2022-10-23T21:52:01.726Z,70.93
2022-10-23T21:54:28.679Z,70.70
2022-10-23T21:56:55.802Z,69.97
2022-10-23T21:59:27.858Z,69.17
2022-10-23T22:01:57.381Z,69.42
2022-10-23T22:04:24.489Z,69.92
2022-10-23T22:06:51.449Z,70.79
2022-10-23T22:09:20.842Z,71.26
2022-10-23T22:11:54.806Z,71.34
2022-10-23T22:14:22.210Z,71.01
2022-10-23T22:16:49.403Z,70.98
2022-10-23T22:19:17.974Z,71.30
2022-10-23T22:21:45.384Z,71.28
2022-10-23T22:24:12.590Z,71.70
2022-10-23T22:26:42.930Z,71.88
2022-10-23T22:29:12.864Z,71.24
2022-10-23T22:31:44.147Z,71.12
2022-10-23T22:34:26.841Z,70.71
2022-10-23T22:37:04.312Z,71.88
2022-10-23T22:39:31.348Z,72.30
2022-10-23T22:41:58.412Z,72.21
2022-10-23T22:44:25.445Z,72.36
2022-10-23T22:46:52.508Z,72.48
2022-10-23T22:49:19.453Z,72.85
2022-10-23T22:51:46.493Z,73.21
2022-10-23T22:54:13.456Z,73.44
2022-10-23T22:56:40.523Z,73.52
2022-10-23T22:59:07.509Z,73.55
2022-10-23T23:01:36.406Z,73.77
2022-10-23T23:04:19.454Z,73.81
2022-10-23T23:06:50.631Z,73.46
2022-10-23T23:09:18.845Z,73.25
2022-10-23T23:11:51.755Z,73.62
2022-10-23T23:14:24.128Z,73.95
2022-10-23T23:16:53.044Z,74.43
2022-10-23T23:19:22.773Z,74.58
2022-10-23T23:21:49.911Z,74.26
2022-10-23T23:24:16.889Z,74.13
2022-10-23T23:26:43.861Z,73.73
2022-10-23T23:29:11.162Z,73.70
2022-10-23T23:31:38.199Z,73.63
2022-10-23T23:34:05.194Z,73.77
2022-10-23T23:36:32.762Z,74.49
2022-10-23T23:39:00.167Z,75.00
2022-10-23T23:41:28.631Z,75.31
2022-10-23T23:43:57.667Z,75.60
2022-10-23T23:46:25.527Z,75.39
2022-10-23T23:48:52.476Z,75.55
2022-10-23T23:51:24.940Z,75.88
2022-10-23T23:53:52.454Z,76.16
2022-10-23T23:56:20.514Z,76.57
2022-10-23T23:58:47.487Z,76.98
